Time;durP1;ratioP1;P1;durP2;ratioP2;P2;SDS_P1;SDS_P2;PMS_P1;PMS_P2;Temp;Humidity;BMP_temperature;BMP_pressure;BME280_temperature;BME280_humidity;BME280_pressure;Samples;Min_cycle;Max_cycle;Signal;HPM_P1;HPM_P2
2021/07/09 00:01:29;;;;;;;45.95;26.25;;;16.40;99.90;;;;;;4980915;28;20046;-86
2021/07/09 00:03:56;;;;;;;47.67;26.20;;;16.40;99.90;;;;;;4978433;28;20677;-88
2021/07/09 00:06:25;;;;;;;48.00;26.55;;;16.40;99.90;;;;;;4983048;28;20092;-86
2021/07/09 00:08:54;;;;;;;35.40;23.00;;;16.40;99.90;;;;;;4952014;28;20576;-85
2021/07/09 00:11:20;;;;;;;43.92;25.98;;;16.40;99.90;;;;;;4983558;28;20405;-87
2021/07/09 00:13:46;;;;;;;40.05;24.48;;;16.40;99.90;;;;;;4984776;28;20049;-87
2021/07/09 00:16:14;;;;;;;34.80;23.20;;;16.40;99.90;;;;;;4982566;28;20101;-86
2021/07/09 00:18:40;;;;;;;36.40;22.00;;;16.40;99.90;;;;;;4986255;28;20121;-87
2021/07/09 00:21:06;;;;;;;46.35;25.42;;;16.40;99.90;;;;;;4982867;28;20569;-86
2021/07/09 00:23:34;;;;;;;58.60;27.58;;;16.30;99.90;;;;;;4986192;28;20054;-86
2021/07/09 00:26:00;;;;;;;60.58;28.92;;;16.30;99.90;;;;;;4970157;28;20444;-87
2021/07/09 00:28:26;;;;;;;48.35;25.70;;;16.30;99.90;;;;;;4983998;28;20042;-86
2021/07/09 00:30:52;;;;;;;35.55;23.42;;;16.30;99.90;;;;;;4965771;28;20046;-86
2021/07/09 00:33:27;;;;;;;39.95;24.25;;;16.20;99.90;;;;;;4961030;28;20046;-86
2021/07/09 00:35:53;;;;;;;33.78;24.23;;;16.30;99.90;;;;;;4969801;28;20134;-86
2021/07/09 00:38:19;;;;;;;54.00;27.27;;;16.20;99.90;;;;;;4934294;28;20109;-86
2021/07/09 00:40:45;;;;;;;48.42;27.10;;;16.20;99.90;;;;;;4942949;28;20489;-86
2021/07/09 00:43:11;;;;;;;28.30;20.40;;;16.20;99.90;;;;;;4940490;28;20791;-86
2021/07/09 00:45:41;;;;;;;31.15;21.13;;;16.20;99.90;;;;;;4946982;28;20054;-84
2021/07/09 00:48:07;;;;;;;24.70;18.65;;;16.20;99.90;;;;;;4943137;28;20471;-86
2021/07/09 00:50:34;;;;;;;22.58;17.38;;;16.10;99.90;;;;;;4955316;28;20716;-85
2021/07/09 00:53:05;;;;;;;23.08;16.83;;;16.10;99.90;;;;;;4942042;28;20378;-86
2021/07/09 00:55:32;;;;;;;23.10;17.20;;;16.10;99.90;;;;;;4932218;28;20062;-86
2021/07/09 00:58:00;;;;;;;35.15;22.17;;;16.10;99.90;;;;;;4945493;28;20063;-86
2021/07/09 01:00:28;;;;;;;51.22;25.73;;;16.10;99.90;;;;;;4935467;28;20038;-87
2021/07/09 01:02:56;;;;;;;52.03;30.20;;;16.10;99.90;;;;;;4928459;28;20050;-85
2021/07/09 01:05:22;;;;;;;56.10;29.13;;;16.00;99.90;;;;;;4941378;28;20039;-87
2021/07/09 01:07:48;;;;;;;48.60;27.48;;;16.00;99.90;;;;;;4943698;28;20041;-86
2021/07/09 01:10:17;;;;;;;58.47;29.23;;;16.00;99.90;;;;;;4973195;28;20504;-86
2021/07/09 01:12:45;;;;;;;64.68;32.47;;;16.00;99.90;;;;;;4939288;28;20050;-86
2021/07/09 01:15:17;;;;;;;51.78;29.77;;;16.10;99.90;;;;;;4955289;28;20097;-86
2021/07/09 01:17:44;;;;;;;66.72;30.92;;;16.10;99.90;;;;;;4939843;28;20064;-86
2021/07/09 01:20:12;;;;;;;61.80;30.60;;;16.10;99.90;;;;;;4956173;28;20569;-87
2021/07/09 01:22:44;;;;;;;68.82;32.88;;;16.00;99.90;;;;;;4958004;28;20065;-86
2021/07/09 01:25:17;;;;;;;76.28;32.65;;;16.00;99.90;;;;;;4981114;28;20039;-87
2021/07/09 01:27:45;;;;;;;61.33;30.77;;;16.00;99.90;;;;;;4940583;28;20583;-86
2021/07/09 01:30:14;;;;;;;41.30;26.70;;;16.00;99.90;;;;;;4946401;28;20508;-86
2021/07/09 01:32:41;;;;;;;63.47;30.80;;;16.00;99.90;;;;;;4960138;28;20506;-86
2021/07/09 01:35:08;;;;;;;62.13;30.05;;;16.00;99.90;;;;;;4932515;28;20365;-86
2021/07/09 01:37:35;;;;;;;61.70;28.85;;;16.00;99.90;;;;;;4946924;28;20499;-86
2021/07/09 01:40:04;;;;;;;84.07;30.60;;;16.00;99.90;;;;;;4918513;28;20043;-87
2021/07/09 01:42:30;;;;;;;50.13;27.30;;;16.00;99.90;;;;;;4934608;28;20513;-87
2021/07/09 01:44:55;;;;;;;41.95;26.90;;;16.00;99.90;;;;;;4947425;28;20066;-87
2021/07/09 01:47:25;;;;;;;48.22;26.73;;;16.00;99.90;;;;;;4920687;28;20051;-87
2021/07/09 01:49:54;;;;;;;65.38;27.48;;;16.00;99.90;;;;;;4947291;28;20050;-86
2021/07/09 01:52:20;;;;;;;75.88;29.00;;;16.00;99.90;;;;;;4961235;28;20039;-86
2021/07/09 01:54:47;;;;;;;52.45;26.25;;;16.00;99.90;;;;;;4929836;28;20126;-86
2021/07/09 01:57:13;;;;;;;80.72;30.25;;;16.00;99.90;;;;;;4934381;28;20272;-87
2021/07/09 01:59:40;;;;;;;64.65;27.70;;;16.00;99.90;;;;;;4948571;28;20063;-88
2021/07/09 02:02:06;;;;;;;38.88;24.42;;;15.90;99.90;;;;;;4933167;28;20063;-86
2021/07/09 02:04:33;;;;;;;37.05;24.15;;;15.90;99.90;;;;;;4967776;28;20039;-86
2021/07/09 02:06:59;;;;;;;53.60;26.38;;;15.90;99.90;;;;;;4920993;28;20050;-85
2021/07/09 02:09:57;;;;;;;55.00;27.40;;;15.90;99.90;;;;;;4945115;28;20575;-85
2021/07/09 02:12:31;;;;;;;55.40;28.27;;;15.90;99.90;;;;;;4937630;28;20054;-85
2021/07/09 02:15:14;;;;;;;35.38;23.48;;;15.80;99.90;;;;;;4967143;28;20043;-84
2021/07/09 02:17:43;;;;;;;42.40;23.98;;;15.80;99.90;;;;;;4958369;28;20065;-86
2021/07/09 02:20:23;;;;;;;32.75;23.33;;;15.80;99.90;;;;;;4953528;28;20169;-86
2021/07/09 02:23:32;;;;;;;90.95;30.55;;;15.70;99.90;;;;;;4972206;28;20551;-85
2021/07/09 02:26:02;;;;;;;89.88;29.80;;;15.70;99.90;;;;;;4960650;28;20077;-87
2021/07/09 02:28:48;;;;;;;61.65;27.23;;;15.60;99.90;;;;;;4938327;29;20035;-87
2021/07/09 02:31:19;;;;;;;31.38;20.67;;;15.60;99.90;;;;;;4957004;28;20129;-86
2021/07/09 02:33:45;;;;;;;58.30;27.20;;;15.60;99.90;;;;;;4965808;28;20412;-88
2021/07/09 02:36:11;;;;;;;25.88;18.83;;;15.50;99.90;;;;;;4961943;28;20050;-87
2021/07/09 02:38:37;;;;;;;60.33;26.17;;;15.40;99.90;;;;;;4967012;28;20050;-87
2021/07/09 02:41:03;;;;;;;95.72;28.38;;;15.50;99.90;;;;;;4971410;28;20512;-89
2021/07/09 02:43:29;;;;;;;42.85;22.05;;;15.40;99.90;;;;;;4953365;28;20181;-88
2021/07/09 02:45:55;;;;;;;32.70;21.40;;;15.30;99.90;;;;;;4952538;28;20072;-88
2021/07/09 02:48:23;;;;;;;42.20;23.40;;;15.30;99.90;;;;;;4968769;28;20491;-87
2021/07/09 02:50:49;;;;;;;54.88;28.52;;;15.20;99.90;;;;;;4946124;28;20632;-86
2021/07/09 02:53:15;;;;;;;45.28;26.88;;;15.20;99.90;;;;;;4950942;28;20094;-87
2021/07/09 02:55:42;;;;;;;53.33;27.27;;;15.20;99.90;;;;;;4970254;28;20104;-86
2021/07/09 02:58:19;;;;;;;77.88;32.00;;;15.20;99.90;;;;;;4988586;28;20053;-86
2021/07/09 03:00:45;;;;;;;117.18;35.22;;;15.20;99.90;;;;;;4983716;28;20493;-85
2021/07/09 03:03:11;;;;;;;130.05;34.60;;;15.20;99.90;;;;;;4973983;28;20054;-85
2021/07/09 03:05:42;;;;;;;64.57;30.63;;;15.20;99.90;;;;;;4965671;28;20046;-84
2021/07/09 03:08:11;;;;;;;40.50;25.90;;;15.20;99.90;;;;;;4988860;28;20073;-82
2021/07/09 03:10:39;;;;;;;81.05;31.15;;;15.20;99.90;;;;;;4987774;28;20516;-84
2021/07/09 03:13:06;;;;;;;47.13;27.33;;;15.20;99.90;;;;;;4985007;28;20038;-83
2021/07/09 03:15:32;;;;;;;44.47;26.15;;;15.20;99.90;;;;;;4974775;28;20058;-84
2021/07/09 03:17:57;;;;;;;93.72;32.90;;;15.20;99.90;;;;;;4989122;28;20148;-84
2021/07/09 03:20:24;;;;;;;94.63;33.42;;;15.20;99.90;;;;;;4981474;28;20050;-84
2021/07/09 03:22:50;;;;;;;66.60;30.33;;;15.20;99.90;;;;;;4969558;28;20120;-83
2021/07/09 03:25:16;;;;;;;117.22;32.30;;;15.20;99.90;;;;;;4971230;28;20507;-84
2021/07/09 03:27:42;;;;;;;44.38;26.27;;;15.20;99.90;;;;;;4971423;28;20050;-84
2021/07/09 03:30:12;;;;;;;68.40;28.70;;;15.20;99.90;;;;;;4986682;28;20121;-83
2021/07/09 03:32:41;;;;;;;73.13;28.90;;;15.20;99.90;;;;;;4969841;28;20449;-83
2021/07/09 03:35:08;;;;;;;53.58;27.48;;;15.20;99.90;;;;;;4986618;28;20391;-84
2021/07/09 03:37:35;;;;;;;35.80;24.42;;;15.20;99.90;;;;;;4990024;28;20118;-83
2021/07/09 03:40:03;;;;;;;38.58;24.25;;;15.10;99.90;;;;;;4967992;28;20030;-84
2021/07/09 03:42:29;;;;;;;66.00;27.58;;;15.20;99.90;;;;;;4985763;28;20046;-83
2021/07/09 03:44:55;;;;;;;40.72;24.92;;;15.20;99.90;;;;;;4984289;28;20108;-84
2021/07/09 03:47:21;;;;;;;41.65;25.00;;;15.20;99.90;;;;;;4987443;28;20039;-84
2021/07/09 03:49:47;;;;;;;40.28;24.02;;;15.20;99.90;;;;;;4985705;28;20038;-84
2021/07/09 03:52:13;;;;;;;58.30;27.15;;;15.20;99.90;;;;;;4988063;28;20154;-84
2021/07/09 03:54:39;;;;;;;82.13;31.30;;;15.20;99.90;;;;;;4982768;28;20145;-84
2021/07/09 03:57:06;;;;;;;34.53;24.33;;;15.20;99.90;;;;;;4981674;28;20042;-84
2021/07/09 03:59:32;;;;;;;34.08;23.70;;;15.20;99.90;;;;;;4985282;28;20046;-83
2021/07/09 04:01:58;;;;;;;69.22;29.92;;;15.20;99.90;;;;;;4981232;28;20042;-83
2021/07/09 04:04:24;;;;;;;31.70;23.42;;;15.10;99.90;;;;;;4961475;28;20101;-84
2021/07/09 04:06:53;;;;;;;31.65;22.58;;;15.20;99.90;;;;;;4987521;28;20049;-84
2021/07/09 04:09:19;;;;;;;53.03;30.88;;;15.10;99.90;;;;;;4977984;28;20351;-83
2021/07/09 04:11:45;;;;;;;35.60;25.95;;;15.10;99.90;;;;;;4987253;28;20026;-84
2021/07/09 04:14:11;;;;;;;36.97;24.90;;;15.10;99.90;;;;;;4963962;28;20069;-82
2021/07/09 04:16:40;;;;;;;31.70;22.75;;;15.10;99.90;;;;;;5001561;28;20085;-82
2021/07/09 04:19:06;;;;;;;34.97;25.45;;;15.10;99.90;;;;;;4998201;28;20073;-82
2021/07/09 04:21:32;;;;;;;33.17;23.80;;;15.00;99.90;;;;;;4989851;28;20520;-83
2021/07/09 04:23:58;;;;;;;38.10;26.52;;;15.00;99.90;;;;;;4950374;28;20062;-83
2021/07/09 04:26:24;;;;;;;49.35;27.98;;;14.90;99.90;;;;;;4964700;28;20085;-82
2021/07/09 04:28:50;;;;;;;71.78;32.65;;;14.90;99.90;;;;;;4955907;28;20097;-82
2021/07/09 04:31:15;;;;;;;71.63;30.83;;;15.00;99.90;;;;;;4947447;28;20073;-82
2021/07/09 04:33:45;;;;;;;73.75;30.50;;;15.00;99.90;;;;;;4939352;28;20043;-83
2021/07/09 04:36:11;;;;;;;78.22;33.60;;;15.00;99.90;;;;;;4943152;28;20406;-84
2021/07/09 04:38:37;;;;;;;81.05;33.40;;;15.00;99.90;;;;;;4942367;28;20118;-83
2021/07/09 04:41:03;;;;;;;83.70;33.03;;;15.00;99.90;;;;;;4932604;28;20126;-84
2021/07/09 04:43:32;;;;;;;83.03;33.20;;;15.00;99.90;;;;;;4936638;28;20039;-85
2021/07/09 04:45:57;;;;;;;44.38;27.50;;;15.00;99.90;;;;;;4932505;28;20043;-84
2021/07/09 04:48:23;;;;;;;57.80;28.13;;;15.00;99.90;;;;;;4930309;29;20102;-85
2021/07/09 04:50:50;;;;;;;37.45;26.13;;;15.00;99.90;;;;;;4950546;28;20042;-83
2021/07/09 04:53:20;;;;;;;43.50;28.48;;;15.00;99.90;;;;;;4919709;28;20078;-83
2021/07/09 04:55:46;;;;;;;60.65;30.02;;;15.00;99.90;;;;;;4968843;28;20489;-83
2021/07/09 04:58:11;;;;;;;44.67;28.73;;;15.10;99.90;;;;;;4938863;28;20058;-84
2021/07/09 05:00:37;;;;;;;78.35;31.70;;;15.10;99.90;;;;;;4918806;28;20142;-85
2021/07/09 05:03:04;;;;;;;77.75;33.28;;;15.10;99.90;;;;;;4924467;28;20046;-84
2021/07/09 05:05:30;;;;;;;66.85;31.90;;;15.10;99.90;;;;;;4966619;28;20514;-84
2021/07/09 05:07:55;;;;;;;45.22;28.40;;;15.20;99.90;;;;;;4926725;28;20511;-84
2021/07/09 05:10:21;;;;;;;37.97;25.30;;;15.30;99.90;;;;;;4944426;28;20498;-85
2021/07/09 05:12:48;;;;;;;36.95;24.70;;;15.30;99.90;;;;;;4946695;28;20074;-85
2021/07/09 05:15:14;;;;;;;45.35;29.27;;;15.40;99.90;;;;;;4968128;28;20071;-83
2021/07/09 05:17:40;;;;;;;44.72;27.95;;;15.50;99.90;;;;;;4951577;28;20042;-83
2021/07/09 05:20:07;;;;;;;53.67;31.02;;;15.60;99.90;;;;;;4942596;28;20054;-84
2021/07/09 05:22:32;;;;;;;39.85;26.35;;;15.70;99.90;;;;;;4938719;28;20053;-84
2021/07/09 05:25:02;;;;;;;38.90;26.88;;;15.70;99.90;;;;;;4951274;28;20046;-84
2021/07/09 05:27:31;;;;;;;50.20;30.27;;;15.80;99.90;;;;;;4951073;28;20051;-85
2021/07/09 05:30:05;;;;;;;;;;;15.90;99.90;;;;;;4968610;28;20712;-85
2021/07/09 05:32:34;;;;;;;52.10;33.42;;;15.90;99.90;;;;;;4970575;28;19932;-86
2021/07/09 05:35:06;;;;;;;42.55;28.83;;;16.00;99.90;;;;;;4977537;28;20120;-84
2021/07/09 05:37:48;;;;;;;49.47;31.83;;;16.10;99.90;;;;;;4970474;28;20053;-84
2021/07/09 05:40:41;;;;;;;45.53;31.43;;;16.20;99.90;;;;;;4982138;28;20043;-84
2021/07/09 05:43:09;;;;;;;50.95;32.05;;;16.20;99.90;;;;;;4987072;28;20302;-86
2021/07/09 05:45:37;;;;;;;48.42;30.65;;;16.30;99.90;;;;;;4970586;28;20058;-82
2021/07/09 05:48:04;;;;;;;43.15;27.80;;;16.30;99.90;;;;;;4971726;28;20046;-81
2021/07/09 05:50:30;;;;;;;39.17;26.98;;;16.40;99.90;;;;;;4976289;28;20038;-82
2021/07/09 05:53:06;;;;;;;38.38;25.88;;;16.40;99.90;;;;;;4986299;28;20043;-82
2021/07/09 05:55:40;;;;;;;41.35;27.80;;;16.50;99.90;;;;;;4976328;28;20054;-83
2021/07/09 05:58:06;;;;;;;36.13;25.88;;;16.60;99.90;;;;;;4988517;28;20110;-86
2021/07/09 06:00:35;;;;;;;40.17;25.77;;;16.70;99.90;;;;;;4991765;28;20128;-84
2021/07/09 06:03:02;;;;;;;39.35;25.48;;;16.70;99.90;;;;;;4960164;28;20038;-86
2021/07/09 06:05:28;;;;;;;38.25;25.48;;;16.70;99.90;;;;;;4988790;28;20050;-85
2021/07/09 06:07:54;;;;;;;37.25;25.73;;;16.80;99.90;;;;;;4983634;28;20159;-88
2021/07/09 06:10:20;;;;;;;39.67;27.33;;;16.80;99.90;;;;;;4988865;28;20497;-86
2021/07/09 06:12:46;;;;;;;43.88;28.80;;;16.90;99.90;;;;;;4950365;28;20047;-86
2021/07/09 06:15:15;;;;;;;36.63;25.07;;;16.80;99.90;;;;;;4988332;28;20042;-84
2021/07/09 06:17:41;;;;;;;37.78;25.25;;;16.90;99.90;;;;;;4987428;28;20651;-83
2021/07/09 06:20:08;;;;;;;33.58;23.73;;;17.00;99.90;;;;;;4991307;28;20038;-85
2021/07/09 06:22:37;;;;;;;33.75;23.83;;;17.10;99.90;;;;;;4973521;28;20034;-86
2021/07/09 06:25:03;;;;;;;36.08;25.10;;;17.10;99.90;;;;;;4959548;28;20052;-84
2021/07/09 06:27:29;;;;;;;37.55;25.45;;;17.30;99.90;;;;;;4991231;28;20038;-85
2021/07/09 06:29:58;;;;;;;34.67;25.17;;;17.40;99.90;;;;;;4968041;28;20129;-87
2021/07/09 06:32:24;;;;;;;30.85;23.30;;;17.40;99.90;;;;;;4968668;28;20145;-87
2021/07/09 06:34:50;;;;;;;27.55;20.95;;;17.50;99.90;;;;;;4964849;28;20045;-83
2021/07/09 06:37:16;;;;;;;27.95;20.90;;;17.60;99.90;;;;;;4989797;28;20038;-85
2021/07/09 06:39:48;;;;;;;29.58;20.95;;;17.70;99.90;;;;;;4970920;28;20034;-87
2021/07/09 06:42:14;;;;;;;27.08;20.00;;;17.70;99.90;;;;;;4974094;28;20042;-85
2021/07/09 06:44:42;;;;;;;27.17;19.25;;;17.80;99.90;;;;;;4989011;28;20057;-90
2021/07/09 06:47:14;;;;;;;28.38;20.67;;;17.90;99.60;;;;;;4984354;28;20053;-85
2021/07/09 06:49:40;;;;;;;25.38;18.88;;;18.00;99.20;;;;;;4987942;28;20054;-87
2021/07/09 06:52:06;;;;;;;23.65;17.75;;;18.00;99.20;;;;;;4980881;28;20425;-86
2021/07/09 06:54:33;;;;;;;23.23;17.80;;;18.10;99.00;;;;;;4989837;28;20046;-85
2021/07/09 06:56:59;;;;;;;27.08;18.42;;;18.20;98.80;;;;;;4988324;28;20768;-85
2021/07/09 06:59:25;;;;;;;22.88;17.70;;;18.30;98.70;;;;;;4966661;28;20046;-85
2021/07/09 07:01:51;;;;;;;21.52;17.65;;;18.30;98.50;;;;;;4982719;28;20030;-85
2021/07/09 07:11:32;;;;;;;22.77;16.95;;;18.20;98.20;;;;;;4958225;28;20059;-87
2021/07/09 07:13:59;;;;;;;20.70;16.17;;;18.30;98.30;;;;;;4984017;28;20124;-86
2021/07/09 07:16:25;;;;;;;21.13;15.73;;;18.30;98.30;;;;;;4986781;28;20500;-85
2021/07/09 07:18:51;;;;;;;20.08;15.50;;;18.30;98.20;;;;;;4957901;28;20070;-86
2021/07/09 07:21:17;;;;;;;17.88;13.73;;;18.30;98.00;;;;;;4986893;28;20051;-86
2021/07/09 07:23:43;;;;;;;20.38;15.90;;;18.40;98.10;;;;;;4990909;28;20056;-89
2021/07/09 07:26:09;;;;;;;22.27;15.80;;;18.50;98.30;;;;;;4976895;28;20408;-87
2021/07/09 07:28:44;;;;;;;18.67;15.57;;;18.70;97.90;;;;;;4993241;28;20109;-84
2021/07/09 07:31:19;;;;;;;19.90;15.52;;;18.80;96.90;;;;;;4992411;28;20132;-88
2021/07/09 07:33:45;;;;;;;16.95;13.82;;;18.80;96.10;;;;;;4967554;28;20034;-87
2021/07/09 07:36:15;;;;;;;16.02;13.63;;;18.70;96.80;;;;;;4975462;28;20058;-88
2021/07/09 07:38:42;;;;;;;20.17;13.07;;;18.80;96.00;;;;;;4966236;28;20051;-87
2021/07/09 07:41:17;;;;;;;19.42;13.57;;;18.80;96.70;;;;;;4985263;28;20544;-85
2021/07/09 07:43:49;;;;;;;18.48;13.60;;;19.00;96.70;;;;;;4951002;28;20042;-85
2021/07/09 07:46:16;;;;;;;17.40;14.43;;;19.10;96.90;;;;;;4960491;28;20050;-86
2021/07/09 07:48:43;;;;;;;17.15;14.23;;;19.10;97.00;;;;;;4961856;28;20093;-86
2021/07/09 07:51:09;;;;;;;18.05;15.35;;;19.10;96.90;;;;;;4970250;28;20047;-87
2021/07/09 07:53:36;;;;;;;19.67;15.00;;;19.10;96.90;;;;;;4964694;28;20100;-86
2021/07/09 07:56:06;;;;;;;19.63;15.00;;;18.90;97.00;;;;;;4955998;28;20493;-88
2021/07/09 07:58:32;;;;;;;15.40;12.77;;;18.90;97.30;;;;;;4966202;28;20042;-86
2021/07/09 08:01:01;;;;;;;17.70;12.07;;;18.90;97.10;;;;;;4949794;28;20122;-86
2021/07/09 08:03:27;;;;;;;15.25;10.85;;;19.10;96.90;;;;;;4937745;28;20057;-87
2021/07/09 08:05:53;;;;;;;14.70;11.27;;;19.20;96.60;;;;;;4963817;28;20070;-83
2021/07/09 08:08:22;;;;;;;15.07;11.75;;;19.30;95.60;;;;;;4918627;28;20092;-87
2021/07/09 08:10:49;;;;;;;9.95;8.32;;;19.40;95.60;;;;;;4947699;28;20045;-86
2021/07/09 08:13:15;;;;;;;10.25;8.30;;;19.50;95.40;;;;;;4941967;28;20057;-86
2021/07/09 08:15:41;;;;;;;11.10;8.98;;;19.60;93.90;;;;;;4945983;28;20053;-86
2021/07/09 08:18:29;;;;;;;11.07;8.07;;;19.70;93.00;;;;;;4950811;28;20039;-86
2021/07/09 08:22:42;;;;;;;;;;;;;;;;;;;;;
2021/07/09 08:28:36;;;;;;;10.40;7.72;;;20.00;91.80;;;;;;4838223;29;20045;-88
2021/07/09 08:31:05;;;;;;;10.13;7.30;;;20.30;91.60;;;;;;4821054;29;20738;-89
2021/07/09 08:34:46;;;;;;;9.23;8.18;;;20.30;91.50;;;;;;4866921;29;20054;-89
2021/07/09 08:37:12;;;;;;;11.10;7.82;;;20.60;91.10;;;;;;4930965;28;20059;-88
2021/07/09 08:39:41;;;;;;;9.52;7.38;;;20.60;88.90;;;;;;4931705;28;20062;-90
2021/07/09 08:42:11;;;;;;;10.55;8.13;;;20.40;90.60;;;;;;4923758;28;20490;-84
2021/07/09 08:44:38;;;;;;;11.45;9.65;;;20.30;91.40;;;;;;4942428;28;20083;-87
2021/07/09 08:47:07;;;;;;;12.23;8.77;;;20.30;91.20;;;;;;4940006;28;20077;-89
2021/07/09 08:49:34;;;;;;;11.98;9.57;;;20.40;91.50;;;;;;4934986;29;20058;-90
2021/07/09 08:52:01;;;;;;;12.73;8.90;;;20.60;91.60;;;;;;4978124;28;20053;-90
2021/07/09 08:54:27;;;;;;;10.40;9.30;;;20.80;91.80;;;;;;5007038;28;20099;-88
2021/07/09 08:56:54;;;;;;;10.52;8.32;;;20.80;90.60;;;;;;4989089;28;20046;-89
2021/07/09 09:02:46;;;;;;;10.00;7.18;;;20.40;91.30;;;;;;5007449;28;20045;-86
2021/07/09 09:05:25;;;;;;;7.53;6.60;;;20.50;91.00;;;;;;4972656;28;20050;-90
2021/07/09 09:08:04;;;;;;;8.73;7.05;;;20.60;89.90;;;;;;4987567;28;20049;-89
2021/07/09 09:10:37;;;;;;;8.95;7.40;;;20.70;89.30;;;;;;5003261;28;20030;-90
2021/07/09 09:13:11;;;;;;;8.70;7.68;;;20.90;87.80;;;;;;4986078;28;20041;-86
2021/07/09 09:15:40;;;;;;;11.88;7.45;;;21.00;88.40;;;;;;4990799;28;20084;-87
2021/07/09 09:18:26;;;;;;;10.23;8.68;;;21.10;88.20;;;;;;4977719;28;20177;-82
2021/07/09 09:21:08;;;;;;;9.70;7.68;;;21.20;86.00;;;;;;4976939;28;20104;-80
2021/07/09 09:23:50;;;;;;;11.38;8.07;;;21.20;87.40;;;;;;5006314;28;20048;-80
2021/07/09 09:26:38;;;;;;;12.02;8.18;;;21.20;86.00;;;;;;4993961;28;20614;-82
2021/07/09 09:29:06;;;;;;;8.93;7.05;;;21.10;86.50;;;;;;5007167;28;20052;-82
2021/07/09 09:31:37;;;;;;;8.43;6.90;;;21.20;88.10;;;;;;4989205;28;20396;-82
2021/07/09 09:34:04;;;;;;;10.70;7.35;;;21.30;87.40;;;;;;5007994;28;20518;-82
2021/07/09 09:36:34;;;;;;;9.25;6.70;;;21.30;88.10;;;;;;4951742;28;20069;-82
2021/07/09 09:39:02;;;;;;;9.38;7.75;;;21.50;85.80;;;;;;4989047;28;20089;-84
2021/07/09 09:41:31;;;;;;;10.13;8.25;;;21.60;86.00;;;;;;4995161;28;20367;-82
2021/07/09 09:44:12;;;;;;;8.27;5.97;;;21.80;84.40;;;;;;4969685;28;20616;-84
2021/07/09 09:46:38;;;;;;;8.38;6.90;;;22.00;84.10;;;;;;4951578;28;20070;-80
2021/07/09 09:49:05;;;;;;;9.02;6.93;;;22.20;82.40;;;;;;4998512;28;20038;-83
2021/07/09 09:51:39;;;;;;;6.97;6.28;;;22.30;81.50;;;;;;4951855;28;20892;-84
2021/07/09 09:54:18;;;;;;;9.95;6.28;;;22.40;82.50;;;;;;4955009;28;20085;-85
2021/07/09 09:56:47;;;;;;;7.03;5.90;;;22.60;83.10;;;;;;4972902;28;20046;-83
2021/07/09 09:59:22;;;;;;;8.63;6.50;;;22.80;81.90;;;;;;4971605;28;20046;-83
2021/07/09 10:01:51;;;;;;;8.40;6.80;;;23.00;82.60;;;;;;4970579;28;20801;-85
2021/07/09 10:04:17;;;;;;;8.43;6.22;;;23.10;81.80;;;;;;4969963;28;20063;-84
2021/07/09 10:06:44;;;;;;;9.10;6.93;;;22.90;79.70;;;;;;4977781;28;20617;-85
2021/07/09 10:09:13;;;;;;;6.90;6.20;;;22.70;79.90;;;;;;4960552;28;20034;-84
2021/07/09 10:11:40;;;;;;;7.57;4.93;;;22.50;83.00;;;;;;4956135;28;20042;-86
2021/07/09 10:14:21;;;;;;;7.10;5.50;;;22.40;85.30;;;;;;4987557;28;20121;-92
2021/07/09 10:16:51;;;;;;;7.82;6.13;;;22.30;84.30;;;;;;4961574;28;20105;-89
2021/07/09 10:19:26;;;;;;;7.10;5.82;;;22.20;83.20;;;;;;4965364;28;20137;-88
2021/07/09 10:21:52;;;;;;;6.90;5.85;;;22.10;83.60;;;;;;4991237;28;20050;-91
2021/07/09 10:24:19;;;;;;;7.20;5.90;;;22.00;83.60;;;;;;4922885;28;20051;-90
2021/07/09 10:26:55;;;;;;;8.55;6.43;;;22.10;83.90;;;;;;4954892;28;20034;-89
2021/07/09 10:29:24;;;;;;;7.13;5.25;;;22.30;82.60;;;;;;4982494;28;20398;-92
2021/07/09 10:31:53;;;;;;;7.00;5.78;;;22.50;81.70;;;;;;4974229;28;20037;-91
2021/07/09 10:34:29;;;;;;;7.00;5.32;;;22.80;79.50;;;;;;4967379;28;20057;-87
2021/07/09 10:37:19;;;;;;;6.65;5.63;;;23.00;78.20;;;;;;4978359;28;20065;-88
2021/07/09 10:39:50;;;;;;;6.30;4.77;;;23.00;78.10;;;;;;5001818;28;20088;-91
2021/07/09 10:42:28;;;;;;;7.63;5.90;;;23.00;77.10;;;;;;4990382;28;20301;-92
2021/07/09 10:45:11;;;;;;;6.45;5.25;;;23.00;78.30;;;;;;4967033;28;20041;-87
2021/07/09 10:47:41;;;;;;;7.53;5.60;;;23.20;78.00;;;;;;4990510;28;20038;-87
2021/07/09 10:54:40;;;;;;;7.35;5.95;;;23.50;81.10;;;;;;4897251;29;20044;-89
2021/07/09 10:57:22;;;;;;;7.70;5.65;;;23.60;82.30;;;;;;4917687;28;20521;-86
2021/07/09 11:00:23;;;;;;;6.90;5.63;;;23.60;77.60;;;;;;4952060;28;20055;-87
2021/07/09 11:03:09;;;;;;;6.45;5.43;;;23.40;78.40;;;;;;4969318;28;20046;-90
2021/07/09 11:05:44;;;;;;;5.95;5.18;;;23.20;79.00;;;;;;4967993;28;20047;-88
2021/07/09 11:08:35;;;;;;;6.70;5.03;;;23.00;79.00;;;;;;4967389;28;20045;-88
2021/07/09 11:11:07;;;;;;;6.88;5.45;;;22.70;78.50;;;;;;4964129;28;20138;-86
2021/07/09 11:13:46;;;;;;;5.95;4.90;;;22.50;82.10;;;;;;4967533;28;20230;-89
2021/07/09 11:16:30;;;;;;;6.03;5.20;;;22.50;82.20;;;;;;4953077;28;20051;-92
2021/07/09 11:19:02;;;;;;;8.27;5.97;;;22.80;80.90;;;;;;4947449;28;20049;-89
2021/07/09 11:21:34;;;;;;;6.68;5.28;;;23.00;75.90;;;;;;4987945;28;20286;-89
2021/07/09 11:24:02;;;;;;;7.07;5.95;;;23.20;75.70;;;;;;4975494;28;20133;-89
2021/07/09 11:26:36;;;;;;;8.63;5.40;;;23.40;78.00;;;;;;4986617;28;20412;-90
2021/07/09 11:29:28;;;;;;;8.02;5.55;;;23.60;78.10;;;;;;4990817;28;20049;-90
2021/07/09 11:32:08;;;;;;;6.32;4.97;;;23.90;77.20;;;;;;5003730;28;20038;-88
2021/07/09 11:34:46;;;;;;;5.93;4.65;;;24.00;73.80;;;;;;4993838;28;20179;-88
2021/07/09 11:44:57;;;;;;;6.15;4.78;;;24.20;71.40;;;;;;4904939;29;20577;-88
2021/07/09 11:51:18;;;;;;;7.18;4.82;;;23.80;74.40;;;;;;4897252;29;20140;-89
2021/07/09 11:54:03;;;;;;;5.38;4.50;;;23.70;73.80;;;;;;4910458;29;20131;-84
2021/07/09 11:56:42;;;;;;;8.00;5.40;;;23.80;75.30;;;;;;4909278;29;20096;-83
2021/07/09 11:59:18;;;;;;;6.90;5.00;;;23.90;72.40;;;;;;4907278;29;20186;-91
2021/07/09 12:02:51;;;;;;;6.93;4.88;;;24.10;74.90;;;;;;4891696;29;20060;-88
2021/07/09 12:05:36;;;;;;;7.40;4.55;;;24.30;71.30;;;;;;4832060;29;20486;-88
2021/07/09 12:08:17;;;;;;;5.50;4.20;;;24.60;69.20;;;;;;4900811;28;20048;-86
2021/07/09 12:10:44;;;;;;;5.70;4.50;;;24.70;70.80;;;;;;4978970;28;20062;-89
2021/07/09 12:13:12;;;;;;;5.75;5.03;;;24.50;72.70;;;;;;4996834;28;20054;-88
2021/07/09 12:15:53;;;;;;;6.63;4.88;;;24.40;71.90;;;;;;4979376;28;20053;-86
2021/07/09 12:18:22;;;;;;;5.10;4.15;;;24.10;69.90;;;;;;4977629;28;20039;-86
2021/07/09 12:20:53;;;;;;;7.18;4.70;;;23.90;71.90;;;;;;4975436;28;20066;-86
2021/07/09 12:23:21;;;;;;;5.85;4.80;;;23.70;73.70;;;;;;4960945;28;20038;-87
2021/07/09 12:25:57;;;;;;;5.47;4.97;;;23.60;74.40;;;;;;4974957;28;20050;-87
2021/07/09 12:28:29;;;;;;;6.88;4.50;;;23.50;71.60;;;;;;4973445;28;20043;-86
2021/07/09 12:31:34;;;;;;;6.57;4.97;;;23.50;74.50;;;;;;4981741;28;20043;-87
2021/07/09 12:34:35;;;;;;;6.38;4.60;;;23.50;76.90;;;;;;4961730;28;20133;-85
2021/07/09 12:37:03;;;;;;;5.38;4.53;;;23.40;77.70;;;;;;4976100;28;20046;-87
2021/07/09 12:39:31;;;;;;;6.78;5.85;;;23.30;78.20;;;;;;4976341;28;20057;-86
2021/07/09 12:42:16;;;;;;;6.93;5.40;;;23.30;80.00;;;;;;4953437;28;20058;-85
2021/07/09 12:45:12;;;;;;;6.57;5.35;;;23.30;79.10;;;;;;4982799;28;20053;-85
2021/07/09 12:48:14;;;;;;;5.75;4.32;;;23.50;80.00;;;;;;4968172;28;20511;-85
2021/07/09 13:05:37;;;;;;;6.72;5.60;;;23.80;72.50;;;;;;4980405;28;20519;-84
2021/07/09 13:08:12;;;;;;;7.50;5.72;;;23.70;74.80;;;;;;4978730;28;20051;-85
2021/07/09 13:10:39;;;;;;;7.03;5.60;;;23.50;72.80;;;;;;4986952;28;20034;-82
2021/07/09 13:14:02;;;;;;;7.18;5.70;;;23.30;74.80;;;;;;4969113;28;20054;-83
2021/07/09 13:16:28;;;;;;;8.27;6.13;;;23.30;75.50;;;;;;4932858;28;20054;-82
2021/07/09 13:18:54;;;;;;;7.53;5.97;;;23.30;72.50;;;;;;4968202;28;20130;-82
2021/07/09 13:21:25;;;;;;;8.88;6.30;;;23.40;73.40;;;;;;4982840;28;20046;-82
2021/07/09 13:24:11;;;;;;;7.63;6.30;;;23.70;76.80;;;;;;4975463;28;20042;-82
2021/07/09 13:26:42;;;;;;;8.95;6.15;;;23.80;80.40;;;;;;4976086;28;20100;-83
2021/07/09 13:29:23;;;;;;;7.32;6.63;;;24.00;75.00;;;;;;4978077;28;20039;-82
2021/07/09 13:31:53;;;;;;;6.35;5.53;;;24.20;69.50;;;;;;4978955;28;20062;-86
2021/07/09 13:34:20;;;;;;;5.82;5.22;;;24.10;68.40;;;;;;4982945;28;20278;-85
2021/07/09 13:36:48;;;;;;;6.00;5.30;;;24.10;68.80;;;;;;4990540;28;20197;-83
2021/07/09 13:43:11;;;;;;;7.35;4.70;;;23.80;70.60;;;;;;4993700;28;20842;-83
2021/07/09 13:46:13;;;;;;;5.63;4.60;;;23.70;73.80;;;;;;4977821;28;20196;-82